« ### RJNT log 201906 ### | トップページ | 懐古:第7高射特科連隊創隊二十周年静内駐屯地創設三十七周年記念行事他 静内駐屯地他 2001/7/22 sun »

2019/07/06

定点 富山空港 2019/7/6 sat

月が替わるたびに、いつのまにか♪ と、なげく日々。

RJNT 052300Z VRB02KT 8000 VCSH FEW007 SCT010 BKN025 23/20 Q1003

20190706_rjnt_00ja88an

雨が降りそうで降らない、蒸した朝です。

20190706_rjnt_01ja88an

ANA313 RJTT-RJNT JA88AN B737-8AL

RJNT 060000Z 19003KT 130V250 9000 FEW007 SCT010 BKN020 23/21 Q1003

20190706_rjnt_02ja88an

20190706_rjnt_03ja88an

ANA316 RJNT-RJTT JA88AN B737-8AL

RJNT 060100Z 24003KT 180V300 9000 FEW010 SCT030 BKN050 25/21 Q1003

20190706_rjnt_04ja67an

河原だなぁ

20190706_rjnt_05ja67an

ANA315 RJTT-RJNT JA67AN B737-881

20190706_rjnt_06b6786

20190706_rjnt_07b6786

CSN613 ZYTL-RJNT B-6786 A320-232

RJNT 060200Z 36007KT 9999 FEW010 SCT015 BKN030 26/21 Q1003

20190706_rjnt_08b6786

20190706_rjnt_09b6786

CSN614 RJNT-ZYTL B-6786 A320-232

RJNT 060300Z 36008KT 9999 FEW010 SCT015 BKN025 25/20 Q1003

20190706_rjnt_10ja67an

第一のコース・・

20190706_rjnt_11ja67an

20190706_rjnt_12ja67an

ANA1181 RJNT-RJCC JA67AN B737-881

20190706_rjnt_13rjnt

夏祭りの展示

20190706_rjnt_14rjnt

今年も七夕飾りがロビーを彩ります。

20190706_rjnt_15rjnt

20190706_rjnt_16ja6049

JA6049 AS350B2 AHS ずっと滞在してるのかな?

RJNT 060400Z 36008KT 9999 -SHRA FEW010 SCT015 BKN025 25/21 Q1003

20190706_rjnt_17b5261

風が変わって上海さんは、素直にサークリング

20190706_rjnt_18b5261

チョットオーバーシュート

20190706_rjnt_19b5261

立て直して・・

20190706_rjnt_20b5261

ピッタシタッチダウン

20190706_rjnt_21b5261

CSH825 ZSPD-RJNT B-5261 B737-76D

20190706_rjnt_22b5261

ここで離脱です。地元機は一機も動きなし。

|

« ### RJNT log 201906 ### | トップページ | 懐古:第7高射特科連隊創隊二十周年静内駐屯地創設三十七周年記念行事他 静内駐屯地他 2001/7/22 sun »

富山空港」カテゴリの記事

コメント

コメントを書く



(ウェブ上には掲載しません)


コメントは記事投稿者が公開するまで表示されません。



« ### RJNT log 201906 ### | トップページ | 懐古:第7高射特科連隊創隊二十周年静内駐屯地創設三十七周年記念行事他 静内駐屯地他 2001/7/22 sun »